Time;durP1;ratioP1;P1;durP2;ratioP2;P2;SDS_P1;SDS_P2;PMS_P1;PMS_P2;Temp;Humidity;BMP_temperature;BMP_pressure;BME280_temperature;BME280_humidity;BME280_pressure;Samples;Min_cycle;Max_cycle;Signal;HPM_P1;HPM_P2
2021/04/04 00:00:15;;;;;;;;;0.00;0.00;;;;;;;;3539251;39;113942;-70
2021/04/04 00:02:41;;;;;;;;;0.00;0.00;;;;;;;;3539599;39;112681;-70
2021/04/04 00:05:10;;;;;;;;;1.00;1.00;;;;;;;;3539326;39;113528;-71
2021/04/04 00:07:36;;;;;;;;;2.00;0.25;;;;;;;;3539409;39;114357;-69
2021/04/04 00:10:04;;;;;;;;;1.00;1.00;;;;;;;;3538918;39;112093;-70
2021/04/04 00:12:30;;;;;;;;;0.25;0.00;;;;;;;;3540225;39;114081;-69
2021/04/04 00:14:56;;;;;;;;;2.50;1.25;;;;;;;;3540787;39;113939;-69
2021/04/04 00:17:22;;;;;;;;;0.00;0.00;;;;;;;;3540291;39;113856;-70
2021/04/04 00:19:48;;;;;;;;;0.00;0.00;;;;;;;;3538706;39;113786;-70
2021/04/04 00:22:14;;;;;;;;;0.00;0.00;;;;;;;;3539824;39;112547;-69
2021/04/04 00:24:40;;;;;;;;;0.50;0.25;;;;;;;;3539526;39;113360;-69
2021/04/04 00:27:07;;;;;;;;;1.50;1.00;;;;;;;;3538664;39;114137;-70
2021/04/04 00:29:33;;;;;;;;;1.00;1.00;;;;;;;;3541999;39;113995;-69
2021/04/04 00:31:59;;;;;;;;;0.00;0.00;;;;;;;;3538733;39;113227;-69
2021/04/04 00:34:25;;;;;;;;;1.00;0.00;;;;;;;;3539869;39;113886;-70
2021/04/04 00:36:51;;;;;;;;;1.00;0.00;;;;;;;;3541596;39;111960;-70
2021/04/04 00:39:18;;;;;;;;;1.25;0.25;;;;;;;;3539604;39;114183;-70
2021/04/04 00:41:44;;;;;;;;;1.00;1.00;;;;;;;;3537057;39;112076;-70
2021/04/04 00:44:11;;;;;;;;;1.25;0.25;;;;;;;;3539282;39;113433;-70
2021/04/04 00:46:38;;;;;;;;;0.00;0.00;;;;;;;;3538919;39;114392;-69
2021/04/04 00:49:04;;;;;;;;;1.75;0.00;;;;;;;;3538703;39;111901;-69
2021/04/04 00:51:31;;;;;;;;;0.75;0.75;;;;;;;;3537797;39;112272;-69
2021/04/04 00:53:57;;;;;;;;;0.00;0.00;;;;;;;;3538130;39;114410;-69
2021/04/04 00:56:23;;;;;;;;;3.00;1.00;;;;;;;;3538516;39;111885;-69
2021/04/04 00:58:49;;;;;;;;;0.25;0.25;;;;;;;;3542296;39;113193;-69
2021/04/04 01:01:16;;;;;;;;;0.25;0.00;;;;;;;;3538958;39;111762;-69
2021/04/04 01:03:42;;;;;;;;;0.75;0.75;;;;;;;;3539646;39;113715;-69
2021/04/04 01:06:09;;;;;;;;;1.00;1.00;;;;;;;;3538650;39;113894;-69
2021/04/04 01:08:35;;;;;;;;;0.00;0.00;;;;;;;;3538921;39;112241;-69
2021/04/04 01:11:02;;;;;;;;;0.00;0.00;;;;;;;;3540018;39;113326;-69
2021/04/04 01:13:32;;;;;;;;;1.00;0.25;;;;;;;;3537757;39;114360;-69
2021/04/04 01:16:00;;;;;;;;;2.00;0.00;;;;;;;;3539870;39;112225;-68
2021/04/04 01:18:30;;;;;;;;;1.00;0.75;;;;;;;;3538390;39;113117;-69
2021/04/04 01:20:57;;;;;;;;;0.00;0.00;;;;;;;;3539070;39;112978;-69
2021/04/04 01:23:38;;;;;;;;;0.25;0.25;;;;;;;;3538351;39;113017;-69
2021/04/04 01:26:08;;;;;;;;;1.50;0.75;;;;;;;;3538426;39;114101;-69
2021/04/04 01:28:38;;;;;;;;;2.00;1.00;;;;;;;;3539502;39;111918;-69
2021/04/04 01:31:05;;;;;;;;;1.00;1.00;;;;;;;;3538866;39;113233;-69
2021/04/04 01:33:32;;;;;;;;;0.50;0.25;;;;;;;;3539378;39;114227;-69
2021/04/04 01:36:01;;;;;;;;;0.00;0.00;;;;;;;;3538371;39;111894;-69
2021/04/04 01:38:29;;;;;;;;;0.00;0.00;;;;;;;;3540031;39;113957;-70
2021/04/04 01:40:56;;;;;;;;;1.75;0.00;;;;;;;;3537846;39;113621;-70
2021/04/04 01:43:23;;;;;;;;;1.50;0.25;;;;;;;;3540558;39;112129;-70
2021/04/04 01:45:51;;;;;;;;;1.00;1.00;;;;;;;;3538022;39;113818;-69
2021/04/04 01:48:18;;;;;;;;;0.00;0.00;;;;;;;;3539660;39;111913;-69
2021/04/04 01:50:45;;;;;;;;;1.00;1.00;;;;;;;;3538791;39;113369;-69
2021/04/04 01:53:12;;;;;;;;;0.00;0.00;;;;;;;;3538580;39;114290;-70
2021/04/04 01:55:39;;;;;;;;;0.00;0.00;;;;;;;;3539300;39;111699;-69
2021/04/04 01:58:06;;;;;;;;;2.25;1.00;;;;;;;;3538840;39;113261;-69
2021/04/04 02:00:33;;;;;;;;;1.75;1.75;;;;;;;;3538404;39;114556;-70
2021/04/04 02:03:00;;;;;;;;;1.00;0.00;;;;;;;;3540985;39;112231;-69
2021/04/04 02:05:29;;;;;;;;;1.00;1.00;;;;;;;;3539497;39;113263;-69
2021/04/04 02:07:55;;;;;;;;;1.00;1.00;;;;;;;;3538173;39;112394;-69
2021/04/04 02:10:23;;;;;;;;;1.50;0.75;;;;;;;;3539867;39;113413;-69
2021/04/04 02:12:51;;;;;;;;;1.75;0.50;;;;;;;;3537908;39;113939;-70
2021/04/04 02:15:19;;;;;;;;;0.00;0.00;;;;;;;;3539485;39;112221;-69
2021/04/04 02:17:47;;;;;;;;;0.00;0.00;;;;;;;;3538655;39;113295;-69
2021/04/04 02:20:17;;;;;;;;;0.00;0.00;;;;;;;;3538895;39;114138;-69
2021/04/04 02:22:46;;;;;;;;;0.75;0.00;;;;;;;;3540912;39;113514;-69
2021/04/04 02:25:13;;;;;;;;;0.25;0.25;;;;;;;;3541216;39;113146;-70
2021/04/04 02:27:40;;;;;;;;;0.00;0.00;;;;;;;;3539053;39;111931;-70
2021/04/04 02:30:07;;;;;;;;;1.75;1.00;;;;;;;;3538608;39;113315;-70
2021/04/04 02:32:36;;;;;;;;;1.75;0.25;;;;;;;;3539005;39;113854;-69
2021/04/04 02:35:04;;;;;;;;;1.00;1.00;;;;;;;;3538486;39;112054;-70
2021/04/04 02:37:31;;;;;;;;;0.50;0.50;;;;;;;;3539679;39;113915;-70
2021/04/04 02:40:02;;;;;;;;;1.00;1.00;;;;;;;;3537753;39;114047;-69
2021/04/04 02:42:28;;;;;;;;;0.50;0.00;;;;;;;;3537990;39;112060;-70
2021/04/04 02:44:56;;;;;;;;;0.00;0.00;;;;;;;;3537999;39;113434;-70
2021/04/04 02:47:24;;;;;;;;;0.00;0.00;;;;;;;;3539782;39;115317;-69
2021/04/04 02:49:51;;;;;;;;;0.00;0.00;;;;;;;;3538447;39;113347;-70
2021/04/04 02:52:19;;;;;;;;;1.00;1.00;;;;;;;;3538797;39;114383;-69
2021/04/04 02:54:48;;;;;;;;;1.00;1.00;;;;;;;;3538410;39;112096;-69
2021/04/04 02:57:15;;;;;;;;;0.00;0.00;;;;;;;;3539010;39;113310;-69
2021/04/04 02:59:43;;;;;;;;;0.00;0.00;;;;;;;;3538284;39;114466;-69
2021/04/04 03:02:11;;;;;;;;;0.00;0.00;;;;;;;;3538808;39;112878;-70
2021/04/04 03:04:39;;;;;;;;;0.75;0.00;;;;;;;;3538960;39;113320;-69
2021/04/04 03:07:05;;;;;;;;;0.00;0.00;;;;;;;;3537839;39;114347;-69
2021/04/04 03:09:32;;;;;;;;;0.25;0.25;;;;;;;;3542287;39;112184;-69
2021/04/04 03:12:00;;;;;;;;;0.00;0.00;;;;;;;;3537417;39;115038;-69
2021/04/04 03:14:27;;;;;;;;;1.25;0.00;;;;;;;;3539288;39;111991;-69
2021/04/04 03:16:54;;;;;;;;;0.75;0.25;;;;;;;;3537778;39;114574;-69
2021/04/04 03:19:21;;;;;;;;;1.00;1.00;;;;;;;;3538803;39;114034;-69
2021/04/04 03:21:48;;;;;;;;;2.00;0.00;;;;;;;;3538118;39;111904;-69
2021/04/04 03:24:17;;;;;;;;;0.00;0.00;;;;;;;;3538888;39;113399;-69
2021/04/04 03:26:44;;;;;;;;;0.00;0.00;;;;;;;;3537955;39;114035;-69
2021/04/04 03:29:11;;;;;;;;;1.50;1.50;;;;;;;;3538401;39;111834;-69
2021/04/04 03:31:38;;;;;;;;;2.25;2.00;;;;;;;;3540983;39;113394;-70
2021/04/04 03:34:04;;;;;;;;;1.00;1.00;;;;;;;;3538118;39;112224;-69
2021/04/04 03:36:31;;;;;;;;;2.00;2.00;;;;;;;;3539062;39;113439;-69
2021/04/04 03:38:57;;;;;;;;;1.00;1.00;;;;;;;;3537186;39;115266;-70
2021/04/04 03:41:24;;;;;;;;;2.25;2.00;;;;;;;;3539198;39;111971;-70
2021/04/04 03:43:51;;;;;;;;;2.00;2.00;;;;;;;;3537502;39;113657;-70
2021/04/04 03:46:19;;;;;;;;;2.00;2.00;;;;;;;;3538719;39;114094;-69
2021/04/04 03:48:46;;;;;;;;;1.00;1.00;;;;;;;;3537814;39;111787;-69
2021/04/04 03:51:12;;;;;;;;;1.00;1.00;;;;;;;;3538588;39;113619;-69
2021/04/04 03:53:40;;;;;;;;;2.00;2.00;;;;;;;;3540498;39;111817;-68
2021/04/04 03:56:07;;;;;;;;;2.00;1.00;;;;;;;;3540275;39;113424;-69
2021/04/04 03:58:34;;;;;;;;;2.75;0.75;;;;;;;;3538694;39;114117;-68
2021/04/04 04:01:02;;;;;;;;;2.00;1.00;;;;;;;;3539005;39;111855;-69
2021/04/04 04:03:30;;;;;;;;;0.75;0.75;;;;;;;;3537544;39;113422;-68
2021/04/04 04:05:57;;;;;;;;;1.50;1.50;;;;;;;;3538721;39;112079;-69
2021/04/04 04:08:25;;;;;;;;;3.25;2.00;;;;;;;;3537363;39;111708;-68
2021/04/04 04:10:51;;;;;;;;;2.50;0.50;;;;;;;;3539314;39;113353;-69
2021/04/04 04:13:18;;;;;;;;;1.00;1.00;;;;;;;;3541073;39;116352;-69
2021/04/04 04:15:44;;;;;;;;;0.50;0.50;;;;;;;;3537631;39;113945;-70
2021/04/04 04:18:10;;;;;;;;;1.00;1.00;;;;;;;;3537667;39;114017;-68
2021/04/04 04:20:38;;;;;;;;;1.00;1.00;;;;;;;;3538269;39;112194;-69
2021/04/04 04:23:05;;;;;;;;;3.00;1.00;;;;;;;;3538030;39;113673;-69
2021/04/04 04:25:32;;;;;;;;;1.25;1.00;;;;;;;;3539461;39;113908;-69
2021/04/04 04:27:58;;;;;;;;;2.50;1.25;;;;;;;;3538926;39;112024;-70
2021/04/04 04:30:25;;;;;;;;;1.50;1.00;;;;;;;;3540264;39;113377;-70
2021/04/04 04:32:53;;;;;;;;;1.50;1.50;;;;;;;;3536329;39;113122;-71
2021/04/04 04:35:21;;;;;;;;;3.75;1.50;;;;;;;;3542990;39;112434;-71
2021/04/04 04:37:48;;;;;;;;;3.00;1.50;;;;;;;;3534903;39;113055;-71
2021/04/04 04:40:14;;;;;;;;;1.50;1.50;;;;;;;;3539687;39;112076;-71
2021/04/04 04:42:41;;;;;;;;;3.00;1.75;;;;;;;;3542608;39;113371;-71
2021/04/04 04:45:11;;;;;;;;;2.25;2.25;;;;;;;;3539007;39;113779;-70
2021/04/04 04:47:38;;;;;;;;;1.50;1.00;;;;;;;;3539474;39;112298;-71
2021/04/04 04:50:04;;;;;;;;;2.00;2.00;;;;;;;;3539833;39;113231;-71
2021/04/04 04:52:31;;;;;;;;;1.75;1.75;;;;;;;;3538385;39;114482;-71
2021/04/04 04:54:58;;;;;;;;;2.50;1.75;;;;;;;;3540144;39;112123;-70
2021/04/04 04:57:25;;;;;;;;;1.75;1.75;;;;;;;;3540571;39;113832;-71
2021/04/04 04:59:51;;;;;;;;;3.25;1.75;;;;;;;;3538537;39;111756;-71
2021/04/04 05:02:18;;;;;;;;;0.75;0.75;;;;;;;;3540063;39;113344;-71
2021/04/04 05:04:46;;;;;;;;;1.25;1.25;;;;;;;;3538439;39;113815;-71
2021/04/04 05:07:12;;;;;;;;;4.00;2.00;;;;;;;;3539543;39;112166;-71
2021/04/04 05:09:40;;;;;;;;;2.00;2.00;;;;;;;;3539287;39;113257;-70
2021/04/04 05:12:08;;;;;;;;;2.50;2.00;;;;;;;;3538650;39;114170;-70
2021/04/04 05:14:38;;;;;;;;;1.00;1.00;;;;;;;;3539686;39;112056;-71
2021/04/04 05:17:04;;;;;;;;;2.00;1.00;;;;;;;;3539159;39;113296;-71
2021/04/04 05:19:30;;;;;;;;;2.00;2.00;;;;;;;;3544210;39;114266;-71
2021/04/04 05:21:57;;;;;;;;;2.25;2.00;;;;;;;;3538514;39;113687;-70
2021/04/04 05:24:23;;;;;;;;;1.75;1.75;;;;;;;;3539786;39;113874;-71
2021/04/04 05:26:49;;;;;;;;;2.00;2.00;;;;;;;;3538394;39;111928;-71
2021/04/04 05:29:17;;;;;;;;;2.00;2.00;;;;;;;;3539701;39;113394;-71
2021/04/04 05:31:46;;;;;;;;;1.50;1.00;;;;;;;;3538499;39;114230;-71
2021/04/04 05:34:13;;;;;;;;;1.25;1.25;;;;;;;;3539459;39;111862;-71
2021/04/04 05:37:01;;;;;;;;;2.00;1.00;;;;;;;;3542226;39;113750;-71
2021/04/04 05:39:28;;;;;;;;;1.00;1.00;;;;;;;;3536272;39;114032;-71
2021/04/04 05:41:54;;;;;;;;;7.75;2.00;;;;;;;;3542714;39;112099;-71
2021/04/04 05:44:26;;;;;;;;;1.00;1.00;;;;;;;;3537879;39;114061;-71
2021/04/04 05:46:56;;;;;;;;;1.00;1.00;;;;;;;;3538196;39;111844;-70
2021/04/04 05:49:25;;;;;;;;;2.75;2.50;;;;;;;;3538072;39;113369;-70
2021/04/04 05:52:05;;;;;;;;;1.75;1.75;;;;;;;;3537873;39;113882;-70
2021/04/04 05:54:52;;;;;;;;;1.00;1.00;;;;;;;;3538820;39;111856;-71
2021/04/04 05:57:20;;;;;;;;;2.00;2.00;;;;;;;;3531053;39;113311;-71
2021/04/04 05:59:47;;;;;;;;;3.00;2.00;;;;;;;;3538079;39;113963;-70
2021/04/04 06:02:31;;;;;;;;;1.00;1.00;;;;;;;;3542133;39;112324;-70
2021/04/04 06:05:00;;;;;;;;;2.25;1.25;;;;;;;;3538021;39;114105;-70
2021/04/04 06:07:46;;;;;;;;;1.25;1.25;;;;;;;;3539862;39;112101;-70
2021/04/04 06:10:16;;;;;;;;;3.50;1.75;;;;;;;;3537421;39;112633;-70
2021/04/04 06:12:59;;;;;;;;;1.50;1.00;;;;;;;;3538188;39;113953;-71
2021/04/04 06:15:32;;;;;;;;;2.75;2.00;;;;;;;;3538054;39;112164;-71
2021/04/04 06:18:04;;;;;;;;;1.00;1.00;;;;;;;;3539499;39;113236;-70
2021/04/04 06:20:40;;;;;;;;;2.00;2.00;;;;;;;;3538378;39;114321;-70
2021/04/04 06:23:11;;;;;;;;;6.50;1.75;;;;;;;;3539039;39;111881;-70
2021/04/04 06:25:46;;;;;;;;;2.00;2.00;;;;;;;;3541270;39;113340;-71
2021/04/04 06:28:16;;;;;;;;;2.00;2.00;;;;;;;;3538495;39;112176;-70
2021/04/04 06:30:46;;;;;;;;;1.00;1.00;;;;;;;;3539409;39;113353;-70
2021/04/04 06:33:17;;;;;;;;;2.00;2.00;;;;;;;;3537911;39;113919;-68
2021/04/04 06:35:45;;;;;;;;;2.00;2.00;;;;;;;;3541701;39;114138;-69
2021/04/04 06:38:25;;;;;;;;;2.50;1.50;;;;;;;;3539550;39;113277;-69
2021/04/04 06:40:58;;;;;;;;;2.25;1.25;;;;;;;;3525916;39;114646;-70
2021/04/04 06:43:26;;;;;;;;;1.75;1.75;;;;;;;;3538063;39;111867;-70
2021/04/04 06:46:11;;;;;;;;;3.75;2.00;;;;;;;;3539476;39;113264;-71
2021/04/04 06:48:45;;;;;;;;;3.25;2.00;;;;;;;;3541317;39;113886;-71
2021/04/04 06:51:15;;;;;;;;;3.50;2.50;;;;;;;;3538376;39;113154;-72
2021/04/04 06:53:50;;;;;;;;;2.00;2.00;;;;;;;;3538713;39;114058;-72
2021/04/04 06:56:18;;;;;;;;;2.25;2.00;;;;;;;;3534657;39;112285;-72
2021/04/04 06:58:52;;;;;;;;;3.75;2.00;;;;;;;;3539323;39;113823;-70
2021/04/04 07:01:24;;;;;;;;;2.00;2.00;;;;;;;;3537170;39;114105;-70
2021/04/04 07:03:58;;;;;;;;;3.25;1.50;;;;;;;;3538027;39;111861;-70
2021/04/04 07:06:40;;;;;;;;;3.00;2.00;;;;;;;;3537962;39;113259;-69
2021/04/04 07:09:13;;;;;;;;;2.00;2.00;;;;;;;;3538160;39;113781;-69
2021/04/04 07:11:42;;;;;;;;;1.25;1.00;;;;;;;;3541609;39;112372;-69
2021/04/04 07:14:25;;;;;;;;;1.00;1.00;;;;;;;;3536198;39;113053;-69
2021/04/04 07:17:09;;;;;;;;;1.00;1.00;;;;;;;;3538087;39;112417;-68
2021/04/04 07:19:52;;;;;;;;;1.75;1.75;;;;;;;;3538635;39;113918;-67
2021/04/04 07:22:52;;;;;;;;;2.00;2.00;;;;;;;;3533636;39;114200;-68
2021/04/04 07:25:32;;;;;;;;;2.00;2.00;;;;;;;;3527860;39;112142;-68
2021/04/04 07:28:12;;;;;;;;;3.75;2.00;;;;;;;;3524317;39;114075;-68
2021/04/04 07:30:40;;;;;;;;;2.75;2.00;;;;;;;;3527303;39;114071;-67
2021/04/04 07:33:20;;;;;;;;;2.00;2.00;;;;;;;;3535225;39;113794;-67
2021/04/04 07:35:53;;;;;;;;;2.25;2.00;;;;;;;;3540937;39;113366;-67
2021/04/04 07:38:23;;;;;;;;;2.00;2.00;;;;;;;;3537018;39;112313;-67
2021/04/04 07:40:52;;;;;;;;;3.00;1.25;;;;;;;;3540785;39;113297;-67
2021/04/04 07:43:23;;;;;;;;;2.00;2.00;;;;;;;;3536656;39;113967;-67
2021/04/04 07:45:54;;;;;;;;;2.00;2.00;;;;;;;;3538804;39;111946;-68
2021/04/04 07:48:24;;;;;;;;;3.25;2.00;;;;;;;;3536808;39;115543;-68
2021/04/04 07:50:57;;;;;;;;;2.25;1.00;;;;;;;;3540311;39;113993;-67
2021/04/04 07:53:28;;;;;;;;;1.50;1.50;;;;;;;;3538780;39;111975;-69
2021/04/04 07:55:58;;;;;;;;;1.00;1.00;;;;;;;;3538971;39;113203;-67
2021/04/04 07:58:28;;;;;;;;;3.00;2.50;;;;;;;;3539282;39;114592;-68
2021/04/04 08:00:57;;;;;;;;;2.00;2.00;;;;;;;;3538448;39;113412;-67
2021/04/04 08:03:27;;;;;;;;;2.00;2.00;;;;;;;;3537698;39;114000;-67
2021/04/04 08:06:00;;;;;;;;;3.25;3.25;;;;;;;;3538308;39;112176;-68
2021/04/04 08:08:30;;;;;;;;;2.25;1.25;;;;;;;;3538288;39;113218;-68
2021/04/04 08:10:57;;;;;;;;;2.50;2.00;;;;;;;;3539404;39;113643;-70
2021/04/04 08:13:28;;;;;;;;;2.00;2.00;;;;;;;;3537912;39;111814;-68
2021/04/04 08:15:58;;;;;;;;;2.50;2.00;;;;;;;;3537618;39;113596;-67
2021/04/04 08:18:25;;;;;;;;;1.00;1.00;;;;;;;;3540918;39;114070;-68
2021/04/04 08:20:52;;;;;;;;;1.50;1.50;;;;;;;;3538801;39;113571;-68
2021/04/04 08:23:22;;;;;;;;;2.00;2.00;;;;;;;;3539600;39;113821;-69
2021/04/04 08:25:50;;;;;;;;;3.50;3.50;;;;;;;;3538761;39;112347;-68
2021/04/04 08:28:19;;;;;;;;;1.00;1.00;;;;;;;;3539491;39;114475;-68
2021/04/04 08:30:48;;;;;;;;;1.50;1.50;;;;;;;;3539179;39;113870;-68
2021/04/04 08:33:18;;;;;;;;;3.00;2.00;;;;;;;;3537172;39;112224;-67
2021/04/04 08:35:45;;;;;;;;;2.00;1.50;;;;;;;;3539981;39;113629;-68
2021/04/04 08:38:14;;;;;;;;;1.25;1.25;;;;;;;;3537926;39;114448;-68
2021/04/04 08:40:41;;;;;;;;;2.00;2.00;;;;;;;;3544438;39;111898;-69
2021/04/04 08:43:08;;;;;;;;;1.00;1.00;;;;;;;;3541256;39;113952;-68
2021/04/04 08:45:35;;;;;;;;;2.00;2.00;;;;;;;;3542759;39;111946;-68
2021/04/04 08:48:02;;;;;;;;;2.00;2.00;;;;;;;;3541655;39;113784;-68
2021/04/04 08:50:29;;;;;;;;;1.00;1.00;;;;;;;;3541824;39;113942;-69
2021/04/04 08:53:03;;;;;;;;;2.67;1.00;;;;;;;;3539084;39;112825;-69
2021/04/04 08:55:30;;;;;;;;;1.33;1.00;;;;;;;;3542029;39;112718;-68
2021/04/04 08:57:58;;;;;;;;;1.00;1.00;;;;;;;;3538261;39;114004;-69
2021/04/04 09:00:26;;;;;;;;;0.00;0.00;;;;;;;;3539628;39;111838;-69
2021/04/04 09:03:02;;;;;;;;;1.00;1.00;;;;;;;;3540359;39;113368;-69
2021/04/04 09:05:30;;;;;;;;;1.67;1.00;;;;;;;;3538195;39;111813;-69
2021/04/04 09:07:57;;;;;;;;;1.00;1.00;;;;;;;;3539669;39;113340;-68
2021/04/04 09:10:25;;;;;;;;;2.33;2.00;;;;;;;;3537048;39;113808;-68
2021/04/04 09:12:51;;;;;;;;;1.00;1.00;;;;;;;;3537663;39;111794;-68
2021/04/04 09:15:18;;;;;;;;;1.00;1.00;;;;;;;;3538514;39;113346;-71
2021/04/04 09:17:52;;;;;;;;;1.00;1.00;;;;;;;;3538409;39;113801;-69
2021/04/04 09:20:19;;;;;;;;;1.00;1.00;;;;;;;;3539210;39;112803;-68
2021/04/04 09:22:47;;;;;;;;;1.00;1.00;;;;;;;;3539509;39;113425;-68
2021/04/04 09:25:15;;;;;;;;;0.33;0.00;;;;;;;;3540111;39;115107;-69
2021/04/04 09:27:43;;;;;;;;;2.00;1.00;;;;;;;;3538336;39;113488;-71
2021/04/04 09:30:12;;;;;;;;;1.00;1.00;;;;;;;;3537449;39;113905;-69
2021/04/04 09:32:49;;;;;;;;;0.00;0.00;;;;;;;;3539049;39;113061;-69
2021/04/04 09:35:16;;;;;;;;;3.33;1.33;;;;;;;;3539567;39;113552;-70
2021/04/04 09:37:43;;;;;;;;;1.33;1.33;;;;;;;;3538549;39;113877;-73
2021/04/04 09:40:09;;;;;;;;;1.00;1.00;;;;;;;;3538889;39;112107;-72
2021/04/04 09:42:36;;;;;;;;;1.00;1.00;;;;;;;;3539452;39;113919;-73
2021/04/04 09:45:14;;;;;;;;;1.00;1.00;;;;;;;;3537586;39;113936;-71
2021/04/04 09:47:42;;;;;;;;;2.00;1.00;;;;;;;;3541275;39;111771;-72
2021/04/04 09:50:17;;;;;;;;;1.00;1.00;;;;;;;;3538314;39;113876;-71
2021/04/04 09:52:43;;;;;;;;;1.67;1.67;;;;;;;;3538710;39;112198;-68
2021/04/04 09:55:10;;;;;;;;;1.00;1.00;;;;;;;;3538778;39;114357;-68
2021/04/04 09:57:39;;;;;;;;;1.67;1.00;;;;;;;;3538143;39;113821;-68
2021/04/04 10:00:24;;;;;;;;;2.33;2.00;;;;;;;;3538359;39;112630;-67
2021/04/04 10:02:51;;;;;;;;;3.00;2.00;;;;;;;;3539301;39;113800;-71
2021/04/04 10:05:28;;;;;;;;;1.00;1.00;;;;;;;;3537457;39;113991;-75
2021/04/04 10:07:54;;;;;;;;;1.00;1.00;;;;;;;;3538055;39;111931;-68
2021/04/04 10:10:32;;;;;;;;;2.33;1.67;;;;;;;;3541218;39;113297;-67
2021/04/04 10:13:00;;;;;;;;;2.33;2.33;;;;;;;;3537844;39;112359;-69
2021/04/04 10:15:27;;;;;;;;;1.33;1.33;;;;;;;;3539129;39;113846;-69
2021/04/04 10:17:58;;;;;;;;;1.00;1.00;;;;;;;;3537238;39;114703;-69
2021/04/04 10:20:31;;;;;;;;;1.00;1.00;;;;;;;;3536941;39;112009;-69
2021/04/04 10:22:57;;;;;;;;;5.00;3.33;;;;;;;;3537375;39;113627;-68
2021/04/04 10:25:23;;;;;;;;;1.67;1.67;;;;;;;;3538388;39;113811;-67
2021/04/04 10:27:56;;;;;;;;;1.00;1.00;;;;;;;;3537869;39;112019;-67
2021/04/04 10:30:24;;;;;;;;;6.00;4.67;;;;;;;;3539229;39;113356;-68
2021/04/04 10:32:51;;;;;;;;;5.67;5.00;;;;;;;;3539217;39;112261;-70
2021/04/04 10:35:28;;;;;;;;;7.00;6.67;;;;;;;;3536385;39;113427;-69
2021/04/04 10:38:01;;;;;;;;;3.00;2.00;;;;;;;;3537137;39;114291;-67
2021/04/04 10:40:39;;;;;;;;;4.33;3.33;;;;;;;;3537490;39;112089;-68
2021/04/04 10:43:05;;;;;;;;;2.67;2.67;;;;;;;;3538206;39;113136;-69
2021/04/04 10:45:32;;;;;;;;;3.00;3.00;;;;;;;;3534267;39;114252;-73
2021/04/04 10:48:05;;;;;;;;;11.50;11.50;;;;;;;;3538032;39;112102;-73
2021/04/04 10:50:32;;;;;;;;;12.75;10.50;;;;;;;;3540524;39;113744;-71
2021/04/04 10:52:59;;;;;;;;;3.50;3.50;;;;;;;;3540461;39;114062;-73
2021/04/04 10:55:25;;;;;;;;;4.75;4.50;;;;;;;;3538401;39;114254;-73
2021/04/04 10:57:54;;;;;;;;;10.25;8.00;;;;;;;;3535950;39;115344;-73
2021/04/04 11:00:21;;;;;;;;;4.25;3.50;;;;;;;;3538311;39;112321;-73
2021/04/04 11:02:48;;;;;;;;;4.00;4.00;;;;;;;;3537762;39;113353;-72
2021/04/04 11:05:14;;;;;;;;;5.00;3.50;;;;;;;;3538242;39;114155;-72
2021/04/04 11:07:42;;;;;;;;;4.00;3.25;;;;;;;;3538494;39;111985;-71
2021/04/04 11:10:09;;;;;;;;;3.75;3.75;;;;;;;;3538405;39;113406;-72
2021/04/04 11:12:37;;;;;;;;;2.00;2.00;;;;;;;;3538252;39;113942;-72
2021/04/04 11:15:04;;;;;;;;;4.00;3.00;;;;;;;;3540681;39;112042;-72
2021/04/04 11:17:32;;;;;;;;;4.00;4.00;;;;;;;;3538501;39;114164;-72
2021/04/04 11:19:59;;;;;;;;;2.50;2.50;;;;;;;;3537746;39;112156;-72
2021/04/04 11:22:25;;;;;;;;;4.00;4.00;;;;;;;;3539890;39;113728;-73
2021/04/04 11:24:56;;;;;;;;;3.50;3.00;;;;;;;;3535589;39;114142;-72
2021/04/04 11:27:36;;;;;;;;;3.00;3.00;;;;;;;;3537831;39;111909;-73
2021/04/04 11:30:02;;;;;;;;;7.00;3.00;;;;;;;;3538007;39;113533;-72
2021/04/04 11:32:28;;;;;;;;;1.00;1.00;;;;;;;;3538974;39;114395;-72
2021/04/04 11:34:58;;;;;;;;;4.50;2.25;;;;;;;;3538927;39;111859;-74
2021/04/04 11:37:39;;;;;;;;;3.00;3.00;;;;;;;;3540882;39;112856;-71
2021/04/04 11:40:12;;;;;;;;;2.75;2.75;;;;;;;;3538177;39;113693;-72
2021/04/04 11:42:39;;;;;;;;;3.00;3.00;;;;;;;;3539743;39;113573;-72
2021/04/04 11:45:06;;;;;;;;;4.00;4.00;;;;;;;;3538756;39;114222;-72
2021/04/04 11:47:32;;;;;;;;;2.00;2.00;;;;;;;;3539890;39;111916;-72
2021/04/04 11:49:58;;;;;;;;;4.00;4.00;;;;;;;;3539030;39;114093;-72
2021/04/04 11:52:37;;;;;;;;;4.50;2.25;;;;;;;;3539961;39;114542;-72
2021/04/04 11:55:04;;;;;;;;;3.00;2.00;;;;;;;;3539399;39;113050;-73
2021/04/04 11:57:32;;;;;;;;;3.00;3.00;;;;;;;;3540013;39;113780;-73
2021/04/04 12:00:00;;;;;;;;;5.75;3.50;;;;;;;;3541167;39;113783;-73
2021/04/04 12:02:27;;;;;;;;;2.00;2.00;;;;;;;;3540204;39;113691;-73
2021/04/04 12:05:04;;;;;;;;;3.00;3.00;;;;;;;;3538338;39;114313;-73
2021/04/04 12:07:33;;;;;;;;;2.00;2.00;;;;;;;;3538970;39;111928;-72
2021/04/04 12:10:00;;;;;;;;;2.25;2.25;;;;;;;;3540161;39;113351;-73
2021/04/04 12:12:32;;;;;;;;;3.00;3.00;;;;;;;;3538283;39;114195;-72
2021/04/04 12:14:59;;;;;;;;;4.00;2.00;;;;;;;;3539893;39;111903;-72
2021/04/04 12:17:26;;;;;;;;;2.25;2.25;;;;;;;;3538505;39;113368;-72
2021/04/04 12:19:55;;;;;;;;;2.50;2.00;;;;;;;;3539899;39;114326;-73
2021/04/04 12:22:35;;;;;;;;;3.25;3.00;;;;;;;;3540982;39;112011;-72
2021/04/04 12:25:06;;;;;;;;;2.75;2.00;;;;;;;;3535272;39;114418;-72
2021/04/04 12:27:33;;;;;;;;;2.00;2.00;;;;;;;;3539662;39;111785;-74
2021/04/04 12:29:59;;;;;;;;;2.00;2.00;;;;;;;;3540530;39;113652;-73
2021/04/04 12:32:27;;;;;;;;;3.25;2.75;;;;;;;;3538305;39;113976;-73
2021/04/04 12:34:54;;;;;;;;;2.50;2.50;;;;;;;;3540377;39;111830;-72
2021/04/04 12:37:21;;;;;;;;;5.00;3.50;;;;;;;;3538459;39;113341;-73
2021/04/04 12:39:47;;;;;;;;;2.25;2.25;;;;;;;;3539753;39;114090;-72
2021/04/04 12:42:14;;;;;;;;;3.00;2.00;;;;;;;;3541373;39;112339;-73
2021/04/04 12:44:42;;;;;;;;;2.00;2.00;;;;;;;;3538848;39;114405;-72
2021/04/04 12:47:09;;;;;;;;;2.00;2.00;;;;;;;;3537893;39;112240;-72
2021/04/04 12:49:36;;;;;;;;;2.75;2.75;;;;;;;;3539316;39;113731;-72
2021/04/04 12:52:02;;;;;;;;;2.00;2.00;;;;;;;;3538337;39;114157;-71
2021/04/04 12:54:29;;;;;;;;;2.00;2.00;;;;;;;;3539669;39;112194;-72
2021/04/04 17:11:05;;;;;;;;;0.00;0.00;;;;;;;;3549596;39;905622;-73
2021/04/04 17:13:31;;;;;;;;;3.00;2.00;;;;;;;;3568835;39;113986;-71
2021/04/04 17:15:57;;;;;;;;;1.00;1.00;;;;;;;;3570246;39;111849;-75
2021/04/04 17:18:24;;;;;;;;;2.25;2.00;;;;;;;;3570932;39;113190;-77
2021/04/04 17:20:50;;;;;;;;;3.75;1.75;;;;;;;;3568970;39;113867;-74
2021/04/04 17:23:16;;;;;;;;;2.00;2.00;;;;;;;;3570115;39;112205;-72
2021/04/04 17:25:44;;;;;;;;;1.00;1.00;;;;;;;;3570956;39;113105;-73
2021/04/04 17:28:12;;;;;;;;;2.00;2.00;;;;;;;;3568605;39;114240;-74
2021/04/04 17:30:38;;;;;;;;;2.00;2.00;;;;;;;;3573198;39;112145;-71
2021/04/04 17:33:04;;;;;;;;;3.00;2.00;;;;;;;;3570234;39;113797;-76
2021/04/04 17:36:29;;;;;;;;;2.00;2.00;;;;;;;;3572043;39;112250;-74
2021/04/04 17:38:55;;;;;;;;;3.00;3.00;;;;;;;;3566574;39;113734;-69
2021/04/04 17:41:21;;;;;;;;;2.00;2.00;;;;;;;;3564912;39;111945;-71
2021/04/04 17:43:47;;;;;;;;;3.00;2.00;;;;;;;;3566640;39;113205;-71
2021/04/04 17:46:14;;;;;;;;;2.75;2.75;;;;;;;;3564865;39;113796;-73
2021/04/04 17:48:40;;;;;;;;;4.00;2.00;;;;;;;;3566062;39;111856;-72
2021/04/04 17:51:06;;;;;;;;;2.50;2.50;;;;;;;;3566221;39;113037;-71
2021/04/04 17:53:33;;;;;;;;;2.75;2.00;;;;;;;;3565779;39;114465;-70
2021/04/04 17:55:59;;;;;;;;;1.50;1.50;;;;;;;;3567521;39;111892;-69
2021/04/04 17:58:25;;;;;;;;;1.50;1.50;;;;;;;;3566563;39;113974;-73
2021/04/04 18:00:51;;;;;;;;;2.50;2.50;;;;;;;;3565306;39;112181;-72
2021/04/04 18:03:19;;;;;;;;;2.50;2.50;;;;;;;;3567816;39;113396;-71
2021/04/04 18:05:50;;;;;;;;;1.00;1.00;;;;;;;;3564123;39;114038;-71
2021/04/04 18:11:00;;;;;;;;;1.00;1.00;;;;;;;;3568282;39;113019;-71
2021/04/04 18:13:26;;;;;;;;;2.25;2.25;;;;;;;;3566248;39;112695;-72
2021/04/04 18:15:52;;;;;;;;;2.00;2.00;;;;;;;;3568153;39;111868;-71
2021/04/04 18:18:18;;;;;;;;;2.75;2.00;;;;;;;;3571870;39;113975;-73
2021/04/04 18:20:45;;;;;;;;;3.00;3.00;;;;;;;;3569608;39;112361;-72
2021/04/04 18:23:11;;;;;;;;;2.75;2.75;;;;;;;;3569542;39;113722;-72
2021/04/04 18:25:37;;;;;;;;;3.00;2.00;;;;;;;;3568160;39;114410;-71
2021/04/04 18:28:05;;;;;;;;;3.00;2.75;;;;;;;;3566408;39;113322;-74
2021/04/04 18:30:31;;;;;;;;;2.00;2.00;;;;;;;;3564776;39;113253;-70
2021/04/04 18:32:57;;;;;;;;;3.75;3.00;;;;;;;;3564442;39;114401;-73
2021/04/04 18:35:25;;;;;;;;;2.00;2.00;;;;;;;;3565645;39;112141;-83
2021/04/04 18:37:51;;;;;;;;;2.00;2.00;;;;;;;;3566586;39;115323;-78
2021/04/04 18:40:17;;;;;;;;;4.50;3.75;;;;;;;;3570134;39;114422;-70
2021/04/04 18:42:44;;;;;;;;;7.50;4.50;;;;;;;;3568097;39;112239;-71
2021/04/04 18:45:11;;;;;;;;;4.00;3.00;;;;;;;;3567848;39;113887;-72
2021/04/04 18:47:37;;;;;;;;;8.00;4.50;;;;;;;;3562118;39;112451;-73
2021/04/04 18:50:05;;;;;;;;;4.25;4.25;;;;;;;;3560469;39;113439;-73
2021/04/04 18:52:31;;;;;;;;;8.00;4.00;;;;;;;;3558788;39;113961;-72
2021/04/04 18:54:57;;;;;;;;;5.50;5.50;;;;;;;;3561135;39;112446;-70
2021/04/04 18:57:23;;;;;;;;;4.25;3.00;;;;;;;;3559998;39;113576;-71